sensor_id;sensor_type;location;lat;lon;timestamp;pressure;altitude;pressure_sealevel;temperature;humidity
19676;BME280;39539;52.202;9.876;2023-11-21T00:01:40;100217.06;;;7.09;100.00
19676;BME280;39539;52.202;9.876;2023-11-21T00:04:05;100219.31;;;7.12;100.00
19676;BME280;39539;52.202;9.876;2023-11-21T00:06:33;100213.88;;;7.20;100.00
19676;BME280;39539;52.202;9.876;2023-11-21T00:08:59;100209.84;;;7.25;100.00
19676;BME280;39539;52.202;9.876;2023-11-21T00:11:24;100217.38;;;7.28;100.00
19676;BME280;39539;52.202;9.876;2023-11-21T00:13:50;100221.88;;;7.34;100.00
19676;BME280;39539;52.202;9.876;2023-11-21T00:16:16;100231.44;;;7.35;100.00
19676;BME280;39539;52.202;9.876;2023-11-21T00:18:41;100218.03;;;7.36;100.00
19676;BME280;39539;52.202;9.876;2023-11-21T00:21:08;100238.19;;;7.44;100.00
19676;BME280;39539;52.202;9.876;2023-11-21T00:23:34;100224.13;;;7.37;100.00
19676;BME280;39539;52.202;9.876;2023-11-21T00:26:02;100238.19;;;7.44;100.00
19676;BME280;39539;52.202;9.876;2023-11-21T00:28:29;100231.91;;;7.45;100.00
19676;BME280;39539;52.202;9.876;2023-11-21T00:30:55;100241.69;;;7.51;100.00
19676;BME280;39539;52.202;9.876;2023-11-21T00:33:20;100233.34;;;7.54;100.00
19676;BME280;39539;52.202;9.876;2023-11-21T00:35:46;100220.09;;;7.48;100.00
19676;BME280;39539;52.202;9.876;2023-11-21T00:38:11;100228.69;;;7.56;100.00
19676;BME280;39539;52.202;9.876;2023-11-21T00:40:37;100231.56;;;7.61;100.00
19676;BME280;39539;52.202;9.876;2023-11-21T00:43:04;100239.50;;;7.61;100.00
19676;BME280;39539;52.202;9.876;2023-11-21T00:45:31;100238.88;;;7.66;100.00
19676;BME280;39539;52.202;9.876;2023-11-21T00:47:57;100237.44;;;7.63;100.00
19676;BME280;39539;52.202;9.876;2023-11-21T00:50:23;100232.38;;;7.62;100.00
19676;BME280;39539;52.202;9.876;2023-11-21T00:52:49;100230.75;;;7.68;100.00
19676;BME280;39539;52.202;9.876;2023-11-21T00:55:16;100236.84;;;7.68;100.00
19676;BME280;39539;52.202;9.876;2023-11-21T00:57:42;100225.88;;;7.64;100.00
19676;BME280;39539;52.202;9.876;2023-11-21T01:00:08;100229.25;;;7.52;100.00
19676;BME280;39539;52.202;9.876;2023-11-21T01:02:43;100228.63;;;7.50;100.00
19676;BME280;39539;52.202;9.876;2023-11-21T01:05:09;100239.84;;;7.52;100.00
19676;BME280;39539;52.202;9.876;2023-11-21T01:07:36;100242.69;;;7.50;100.00
19676;BME280;39539;52.202;9.876;2023-11-21T01:10:04;100253.47;;;7.55;100.00
19676;BME280;39539;52.202;9.876;2023-11-21T01:12:34;100253.88;;;7.52;100.00
19676;BME280;39539;52.202;9.876;2023-11-21T01:15:01;100260.81;;;7.53;100.00
19676;BME280;39539;52.202;9.876;2023-11-21T01:17:28;100268.94;;;7.58;100.00
19676;BME280;39539;52.202;9.876;2023-11-21T01:19:53;100257.56;;;7.58;100.00
19676;BME280;39539;52.202;9.876;2023-11-21T01:22:18;100265.53;;;7.64;100.00
19676;BME280;39539;52.202;9.876;2023-11-21T01:24:50;100265.75;;;7.70;100.00
19676;BME280;39539;52.202;9.876;2023-11-21T01:27:16;100264.94;;;7.69;100.00
19676;BME280;39539;52.202;9.876;2023-11-21T01:29:42;100260.91;;;7.73;100.00
19676;BME280;39539;52.202;9.876;2023-11-21T01:32:07;100268.22;;;7.78;100.00
19676;BME280;39539;52.202;9.876;2023-11-21T01:34:33;100260.91;;;7.80;100.00
19676;BME280;39539;52.202;9.876;2023-11-21T01:37:00;100263.56;;;7.80;100.00
19676;BME280;39539;52.202;9.876;2023-11-21T01:39:27;100256.00;;;7.77;100.00
19676;BME280;39539;52.202;9.876;2023-11-21T01:41:53;100271.50;;;7.86;100.00
19676;BME280;39539;52.202;9.876;2023-11-21T01:44:18;100276.22;;;7.91;100.00
19676;BME280;39539;52.202;9.876;2023-11-21T01:46:45;100279.47;;;7.93;100.00
19676;BME280;39539;52.202;9.876;2023-11-21T01:49:12;100275.00;;;7.87;100.00
19676;BME280;39539;52.202;9.876;2023-11-21T01:51:42;100282.94;;;7.94;100.00
19676;BME280;39539;52.202;9.876;2023-11-21T01:54:09;100262.75;;;7.86;100.00
19676;BME280;39539;52.202;9.876;2023-11-21T01:56:34;100266.03;;;7.88;100.00
19676;BME280;39539;52.202;9.876;2023-11-21T01:59:00;100277.66;;;7.94;100.00
19676;BME280;39539;52.202;9.876;2023-11-21T02:01:28;100280.69;;;7.97;100.00
19676;BME280;39539;52.202;9.876;2023-11-21T02:03:54;100275.19;;;7.92;100.00
19676;BME280;39539;52.202;9.876;2023-11-21T02:06:21;100281.94;;;8.01;100.00
19676;BME280;39539;52.202;9.876;2023-11-21T02:08:47;100283.97;;;7.99;100.00
19676;BME280;39539;52.202;9.876;2023-11-21T02:11:12;100279.88;;;7.97;100.00
19676;BME280;39539;52.202;9.876;2023-11-21T02:13:41;100282.94;;;7.94;100.00
19676;BME280;39539;52.202;9.876;2023-11-21T02:16:13;100285.38;;;7.95;100.00
19676;BME280;39539;52.202;9.876;2023-11-21T02:18:39;100288.47;;;7.99;100.00
19676;BME280;39539;52.202;9.876;2023-11-21T02:21:06;100279.47;;;7.93;100.00
19676;BME280;39539;52.202;9.876;2023-11-21T02:23:31;100297.38;;;7.98;100.00
19676;BME280;39539;52.202;9.876;2023-11-21T02:25:57;100288.63;;;7.91;100.00
19676;BME280;39539;52.202;9.876;2023-11-21T02:28:22;100294.72;;;7.91;100.00
19676;BME280;39539;52.202;9.876;2023-11-21T02:30:52;100273.50;;;7.78;100.00
19676;BME280;39539;52.202;9.876;2023-11-21T02:33:21;100282.94;;;7.87;100.00
19676;BME280;39539;52.202;9.876;2023-11-21T02:35:47;100292.50;;;7.95;100.00
19676;BME280;39539;52.202;9.876;2023-11-21T02:38:14;100288.41;;;7.92;100.00
19676;BME280;39539;52.202;9.876;2023-11-21T02:40:42;100294.34;;;7.94;100.00
19676;BME280;39539;52.202;9.876;2023-11-21T02:43:08;100299.00;;;7.92;100.00
19676;BME280;39539;52.202;9.876;2023-11-21T02:45:34;100293.88;;;7.84;100.00
19676;BME280;39539;52.202;9.876;2023-11-21T02:47:59;100292.72;;;7.93;100.00
19676;BME280;39539;52.202;9.876;2023-11-21T02:50:24;100293.25;;;7.75;100.00
19676;BME280;39539;52.202;9.876;2023-11-21T02:52:51;100296.31;;;7.79;100.00
19676;BME280;39539;52.202;9.876;2023-11-21T02:55:16;100295.25;;;7.67;100.00
19676;BME280;39539;52.202;9.876;2023-11-21T02:57:42;100302.28;;;7.53;100.00
19676;BME280;39539;52.202;9.876;2023-11-21T03:00:07;100301.88;;;7.49;100.00
19676;BME280;39539;52.202;9.876;2023-11-21T03:02:34;100293.13;;;7.49;100.00
19676;BME280;39539;52.202;9.876;2023-11-21T03:05:04;100301.53;;;7.59;100.00
19676;BME280;39539;52.202;9.876;2023-11-21T03:07:30;100301.09;;;7.55;100.00
19676;BME280;39539;52.202;9.876;2023-11-21T03:09:55;100294.41;;;7.59;100.00
19676;BME280;39539;52.202;9.876;2023-11-21T03:12:20;100304.44;;;7.71;100.00
19676;BME280;39539;52.202;9.876;2023-11-21T03:14:46;100296.44;;;7.64;100.00
19676;BME280;39539;52.202;9.876;2023-11-21T03:17:11;100300.75;;;7.65;100.00
19676;BME280;39539;52.202;9.876;2023-11-21T03:19:36;100316.66;;;7.78;100.00
19676;BME280;39539;52.202;9.876;2023-11-21T03:22:02;100319.13;;;7.80;100.00
19676;BME280;39539;52.202;9.876;2023-11-21T03:24:30;100320.72;;;7.74;100.00
19676;BME280;39539;52.202;9.876;2023-11-21T03:26:56;100328.06;;;7.79;100.00
19676;BME280;39539;52.202;9.876;2023-11-21T03:29:21;100318.66;;;7.70;100.00
19676;BME280;39539;52.202;9.876;2023-11-21T03:31:47;100339.06;;;7.82;100.00
19676;BME280;39539;52.202;9.876;2023-11-21T03:34:22;100339.25;;;7.81;100.00
19676;BME280;39539;52.202;9.876;2023-11-21T03:36:48;100333.38;;;7.85;100.00
19676;BME280;39539;52.202;9.876;2023-11-21T03:39:13;100346.44;;;7.87;100.00
19676;BME280;39539;52.202;9.876;2023-11-21T03:41:40;100346.00;;;7.83;100.00
19676;BME280;39539;52.202;9.876;2023-11-21T03:44:06;100352.72;;;7.86;100.00
19676;BME280;39539;52.202;9.876;2023-11-21T03:46:31;100352.53;;;7.87;100.00
19676;BME280;39539;52.202;9.876;2023-11-21T03:48:57;100344.00;;;7.92;100.00
19676;BME280;39539;52.202;9.876;2023-11-21T03:51:22;100346.44;;;7.87;100.00
19676;BME280;39539;52.202;9.876;2023-11-21T03:53:47;100343.34;;;7.83;100.00
19676;BME280;39539;52.202;9.876;2023-11-21T03:56:13;100356.19;;;7.86;100.00
19676;BME280;39539;52.202;9.876;2023-11-21T03:58:39;100355.78;;;7.90;100.00
19676;BME280;39539;52.202;9.876;2023-11-21T04:01:04;100361.69;;;7.92;100.00
19676;BME280;39539;52.202;9.876;2023-11-21T04:03:30;100354.19;;;7.95;100.00
19676;BME280;39539;52.202;9.876;2023-11-21T04:05:56;100339.53;;;7.93;100.00
19676;BME280;39539;52.202;9.876;2023-11-21T04:08:22;100340.28;;;7.86;100.00
19676;BME280;39539;52.202;9.876;2023-11-21T04:10:47;100363.13;;;7.94;100.00
19676;BME280;39539;52.202;9.876;2023-11-21T04:13:13;100355.81;;;7.96;100.00
19676;BME280;39539;52.202;9.876;2023-11-21T04:15:48;100357.44;;;7.97;100.00
19676;BME280;39539;52.202;9.876;2023-11-21T04:18:13;100365.78;;;7.94;100.00
19676;BME280;39539;52.202;9.876;2023-11-21T04:20:39;100368.66;;;7.93;100.00
19676;BME280;39539;52.202;9.876;2023-11-21T04:23:08;100375.34;;;7.95;100.00
19676;BME280;39539;52.202;9.876;2023-11-21T04:25:36;100382.28;;;7.96;100.00
19676;BME280;39539;52.202;9.876;2023-11-21T04:28:03;100376.38;;;7.94;100.00
19676;BME280;39539;52.202;9.876;2023-11-21T04:30:29;100381.03;;;7.92;100.00
19676;BME280;39539;52.202;9.876;2023-11-21T04:32:54;100383.09;;;7.90;100.00
19676;BME280;39539;52.202;9.876;2023-11-21T04:35:21;100387.34;;;7.91;100.00
19676;BME280;39539;52.202;9.876;2023-11-21T04:37:46;100378.19;;;7.87;100.00
19676;BME280;39539;52.202;9.876;2023-11-21T04:40:13;100397.75;;;7.93;100.00
19676;BME280;39539;52.202;9.876;2023-11-21T04:42:39;100385.09;;;7.88;100.00
19676;BME280;39539;52.202;9.876;2023-11-21T04:45:06;100393.66;;;7.90;100.00
19676;BME280;39539;52.202;9.876;2023-11-21T04:47:36;100394.44;;;7.84;100.00
19676;BME280;39539;52.202;9.876;2023-11-21T04:50:02;100392.22;;;7.87;100.00
19676;BME280;39539;52.202;9.876;2023-11-21T04:52:29;100405.31;;;7.96;100.00
19676;BME280;39539;52.202;9.876;2023-11-21T04:54:55;100391.19;;;7.88;100.00
19676;BME280;39539;52.202;9.876;2023-11-21T04:57:22;100424.03;;;8.01;100.00
19676;BME280;39539;52.202;9.876;2023-11-21T04:59:49;100415.50;;;7.99;100.00
19676;BME280;39539;52.202;9.876;2023-11-21T05:02:14;100422.00;;;8.03;100.00
19676;BME280;39539;52.202;9.876;2023-11-21T05:04:40;100427.72;;;8.06;100.00
19676;BME280;39539;52.202;9.876;2023-11-21T05:07:05;100424.09;;;8.07;100.00
19676;BME280;39539;52.202;9.876;2023-11-21T05:09:33;100426.72;;;8.07;100.00
19676;BME280;39539;52.202;9.876;2023-11-21T05:11:59;100422.22;;;8.01;100.00
19676;BME280;39539;52.202;9.876;2023-11-21T05:14:25;100432.63;;;8.09;100.00
19676;BME280;39539;52.202;9.876;2023-11-21T05:16:50;100426.72;;;8.07;100.00
19676;BME280;39539;52.202;9.876;2023-11-21T05:19:17;100432.03;;;8.07;100.00
19676;BME280;39539;52.202;9.876;2023-11-21T05:21:43;100419.53;;;7.95;100.00
19676;BME280;39539;52.202;9.876;2023-11-21T05:24:09;100435.25;;;8.03;100.00
19676;BME280;39539;52.202;9.876;2023-11-21T05:26:34;100435.88;;;8.05;100.00
19676;BME280;39539;52.202;9.876;2023-11-21T05:29:00;100442.63;;;8.07;100.00
19676;BME280;39539;52.202;9.876;2023-11-21T05:31:25;100443.00;;;8.04;100.00
19676;BME280;39539;52.202;9.876;2023-11-21T05:33:52;100438.31;;;8.06;100.00
19676;BME280;39539;52.202;9.876;2023-11-21T05:36:17;100450.34;;;8.09;100.00
19676;BME280;39539;52.202;9.876;2023-11-21T05:38:43;100451.53;;;8.06;100.00
19676;BME280;39539;52.202;9.876;2023-11-21T05:41:08;100441.97;;;7.99;100.00
19676;BME280;39539;52.202;9.876;2023-11-21T05:43:36;100456.03;;;8.06;100.00
19676;BME280;39539;52.202;9.876;2023-11-21T05:46:01;100450.31;;;8.02;100.00
19676;BME280;39539;52.202;9.876;2023-11-21T05:48:29;100465.00;;;8.05;100.00
19676;BME280;39539;52.202;9.876;2023-11-21T05:50:55;100466.63;;;8.06;100.00
19676;BME280;39539;52.202;9.876;2023-11-21T05:53:20;100463.78;;;8.07;100.00
19676;BME280;39539;52.202;9.876;2023-11-21T05:55:48;100473.78;;;8.12;100.00
19676;BME280;39539;52.202;9.876;2023-11-21T05:58:13;100474.00;;;8.10;100.00
19676;BME280;39539;52.202;9.876;2023-11-21T06:00:38;100474.38;;;8.07;100.00
19676;BME280;39539;52.202;9.876;2023-11-21T06:03:05;100471.91;;;8.06;100.00
19676;BME280;39539;52.202;9.876;2023-11-21T06:05:32;100478.25;;;8.12;100.00
19676;BME280;39539;52.202;9.876;2023-11-21T06:07:58;100485.22;;;8.13;100.00
19676;BME280;39539;52.202;9.876;2023-11-21T06:10:25;100487.41;;;8.09;100.00
19676;BME280;39539;52.202;9.876;2023-11-21T06:12:51;100486.59;;;8.08;100.00
19676;BME280;39539;52.202;9.876;2023-11-21T06:15:17;100493.72;;;8.08;100.00
19676;BME280;39539;52.202;9.876;2023-11-21T06:17:45;100484.56;;;8.10;100.00
19676;BME280;39539;52.202;9.876;2023-11-21T06:20:14;100496.94;;;8.03;100.00
19676;BME280;39539;52.202;9.876;2023-11-21T06:22:52;100507.38;;;8.12;100.00
19676;BME280;39539;52.202;9.876;2023-11-21T06:25:31;100507.59;;;8.10;100.00
19676;BME280;39539;52.202;9.876;2023-11-21T06:27:58;100514.69;;;8.09;100.00
19676;BME280;39539;52.202;9.876;2023-11-21T06:30:23;100522.63;;;8.09;100.00
19676;BME280;39539;52.202;9.876;2023-11-21T06:32:49;100518.34;;;8.08;100.00
19676;BME280;39539;52.202;9.876;2023-11-21T06:35:19;100519.56;;;8.06;100.00
19676;BME280;39539;52.202;9.876;2023-11-21T06:37:45;100526.50;;;8.07;100.00
19676;BME280;39539;52.202;9.876;2023-11-21T06:40:15;100531.81;;;8.07;100.00
19676;BME280;39539;52.202;9.876;2023-11-21T06:42:40;100537.91;;;8.07;100.00
19676;BME280;39539;52.202;9.876;2023-11-21T06:45:07;100537.91;;;8.07;100.00
19676;BME280;39539;52.202;9.876;2023-11-21T06:47:35;100538.72;;;8.08;100.00
19676;BME280;39539;52.202;9.876;2023-11-21T06:50:04;100540.34;;;8.09;100.00
19676;BME280;39539;52.202;9.876;2023-11-21T06:52:42;100557.91;;;8.17;100.00
19676;BME280;39539;52.202;9.876;2023-11-21T06:55:08;100557.03;;;8.09;100.00
19676;BME280;39539;52.202;9.876;2023-11-21T06:57:35;100553.78;;;8.07;100.00
19676;BME280;39539;52.202;9.876;2023-11-21T07:00:34;100566.63;;;8.10;100.00
19676;BME280;39539;52.202;9.876;2023-11-21T07:03:09;100567.41;;;8.04;100.00
19676;BME280;39539;52.202;9.876;2023-11-21T07:05:50;100568.66;;;8.08;100.00
19676;BME280;39539;52.202;9.876;2023-11-21T07:08:15;100574.53;;;8.04;100.00
19676;BME280;39539;52.202;9.876;2023-11-21T07:10:40;100581.88;;;8.08;100.00
19676;BME280;39539;52.202;9.876;2023-11-21T07:13:06;100583.16;;;8.13;100.00
19676;BME280;39539;52.202;9.876;2023-11-21T07:15:32;100588.66;;;8.18;100.00
19676;BME280;39539;52.202;9.876;2023-11-21T07:17:59;100599.88;;;8.20;100.00
19676;BME280;39539;52.202;9.876;2023-11-21T07:20:27;100598.25;;;8.19;100.00
19676;BME280;39539;52.202;9.876;2023-11-21T07:22:54;100598.88;;;8.21;100.00
19676;BME280;39539;52.202;9.876;2023-11-21T07:25:21;100599.66;;;8.15;100.00
19676;BME280;39539;52.202;9.876;2023-11-21T07:28:02;100599.66;;;8.15;100.00
19676;BME280;39539;52.202;9.876;2023-11-21T07:30:28;100606.63;;;7.94;100.00
19676;BME280;39539;52.202;9.876;2023-11-21T07:32:53;100618.53;;;7.83;100.00
19676;BME280;39539;52.202;9.876;2023-11-21T07:35:22;100619.44;;;7.48;100.00
19676;BME280;39539;52.202;9.876;2023-11-21T07:37:49;100632.63;;;7.11;100.00
19676;BME280;39539;52.202;9.876;2023-11-21T07:40:14;100628.09;;;6.75;100.00
19676;BME280;39539;52.202;9.876;2023-11-21T07:42:40;100636.41;;;6.72;100.00
19676;BME280;39539;52.202;9.876;2023-11-21T07:45:08;100640.88;;;6.57;100.00
19676;BME280;39539;52.202;9.876;2023-11-21T07:47:34;100638.84;;;6.44;100.00
19676;BME280;39539;52.202;9.876;2023-11-21T07:50:02;100643.09;;;6.45;100.00
19676;BME280;39539;52.202;9.876;2023-11-21T07:52:28;100638.03;;;6.59;100.00
19676;BME280;39539;52.202;9.876;2023-11-21T07:54:55;100651.06;;;6.60;100.00
19676;BME280;39539;52.202;9.876;2023-11-21T07:57:21;100650.94;;;6.53;100.00
19676;BME280;39539;52.202;9.876;2023-11-21T07:59:53;100661.78;;;6.44;100.00
19676;BME280;39539;52.202;9.876;2023-11-21T08:02:21;100678.91;;;6.48;100.00
19676;BME280;39539;52.202;9.876;2023-11-21T08:04:48;100675.63;;;6.46;100.00
19676;BME280;39539;52.202;9.876;2023-11-21T08:07:16;100675.50;;;6.39;100.00
19676;BME280;39539;52.202;9.876;2023-11-21T08:09:42;100683.78;;;6.36;100.00
19676;BME280;39539;52.202;9.876;2023-11-21T08:12:07;100691.16;;;6.26;100.00
19676;BME280;39539;52.202;9.876;2023-11-21T08:14:33;100701.53;;;6.27;100.00
19676;BME280;39539;52.202;9.876;2023-11-21T08:17:00;100702.75;;;6.17;100.00
19676;BME280;39539;52.202;9.876;2023-11-21T08:19:25;100702.94;;;6.15;100.00
19676;BME280;39539;52.202;9.876;2023-11-21T08:21:51;100700.66;;;6.12;100.00
19676;BME280;39539;52.202;9.876;2023-11-21T08:24:20;100718.72;;;6.23;100.00
19676;BME280;39539;52.202;9.876;2023-11-21T08:26:45;100720.78;;;6.13;100.00
19676;BME280;39539;52.202;9.876;2023-11-21T08:29:11;100731.28;;;6.21;100.00
19676;BME280;39539;52.202;9.876;2023-11-21T08:31:36;100725.75;;;6.08;100.00
19676;BME280;39539;52.202;9.876;2023-11-21T08:34:03;100735.06;;;5.96;100.00
19676;BME280;39539;52.202;9.876;2023-11-21T08:36:28;100748.53;;;6.09;100.00
19676;BME280;39539;52.202;9.876;2023-11-21T08:38:54;100743.41;;;6.07;100.00
19676;BME280;39539;52.202;9.876;2023-11-21T08:41:19;100752.72;;;5.95;100.00
19676;BME280;39539;52.202;9.876;2023-11-21T08:43:49;100756.03;;;5.97;100.00
19676;BME280;39539;52.202;9.876;2023-11-21T08:46:15;100747.25;;;5.97;100.00
19676;BME280;39539;52.202;9.876;2023-11-21T08:48:42;100745.28;;;5.99;100.00
19676;BME280;39539;52.202;9.876;2023-11-21T08:51:10;100751.78;;;6.11;100.00
19676;BME280;39539;52.202;9.876;2023-11-21T08:53:36;100751.16;;;6.09;100.00
19676;BME280;39539;52.202;9.876;2023-11-21T08:56:03;100751.50;;;6.06;100.00
19676;BME280;39539;52.202;9.876;2023-11-21T08:58:30;100763.84;;;6.05;100.00
19676;BME280;39539;52.202;9.876;2023-11-21T09:00:57;100766.59;;;5.89;100.00
19676;BME280;39539;52.202;9.876;2023-11-21T09:03:23;100773.66;;;5.97;100.00
19676;BME280;39539;52.202;9.876;2023-11-21T09:05:48;100754.22;;;5.90;100.00
19676;BME280;39539;52.202;9.876;2023-11-21T09:08:14;100774.84;;;5.86;100.00
19676;BME280;39539;52.202;9.876;2023-11-21T09:10:39;100766.81;;;5.71;100.00
19676;BME280;39539;52.202;9.876;2023-11-21T09:13:05;100784.28;;;5.80;100.00
19676;BME280;39539;52.202;9.876;2023-11-21T09:15:31;100780.78;;;5.80;100.00
19676;BME280;39539;52.202;9.876;2023-11-21T09:17:56;100796.41;;;5.90;100.00
19676;BME280;39539;52.202;9.876;2023-11-21T09:20:23;100785.53;;;5.93;100.00
19676;BME280;39539;52.202;9.876;2023-11-21T09:22:49;100792.78;;;5.91;100.00
19676;BME280;39539;52.202;9.876;2023-11-21T09:25:15;100800.69;;;5.99;100.00
19676;BME280;39539;52.202;9.876;2023-11-21T09:27:42;100812.94;;;5.83;100.00
19676;BME280;39539;52.202;9.876;2023-11-21T09:30:07;100820.66;;;5.85;100.00
19676;BME280;39539;52.202;9.876;2023-11-21T09:32:37;100838.97;;;5.95;100.00
19676;BME280;39539;52.202;9.876;2023-11-21T09:35:04;100816.75;;;5.81;100.00
19676;BME280;39539;52.202;9.876;2023-11-21T09:37:30;100817.22;;;5.84;100.00
19676;BME280;39539;52.202;9.876;2023-11-21T09:39:56;100829.03;;;5.97;100.00
19676;BME280;39539;52.202;9.876;2023-11-21T09:42:37;100854.19;;;6.16;100.00
19676;BME280;39539;52.202;9.876;2023-11-21T09:45:26;100859.47;;;6.16;100.00
19676;BME280;39539;52.202;9.876;2023-11-21T09:47:54;100864.06;;;6.22;100.00
19676;BME280;39539;52.202;9.876;2023-11-21T09:50:23;100861.75;;;6.19;100.00
19676;BME280;39539;52.202;9.876;2023-11-21T09:55:21;100873.13;;;6.19;100.00
19676;BME280;39539;52.202;9.876;2023-11-21T09:57:52;100876.53;;;6.28;100.00
19676;BME280;39539;52.202;9.876;2023-11-21T10:00:19;100874.50;;;6.15;100.00
19676;BME280;39539;52.202;9.876;2023-11-21T10:02:49;100878.38;;;6.27;100.00
19676;BME280;39539;52.202;9.876;2023-11-21T10:05:17;100877.09;;;6.23;100.00
19676;BME280;39539;52.202;9.876;2023-11-21T10:07:45;100884.81;;;6.25;100.00
19676;BME280;39539;52.202;9.876;2023-11-21T10:10:13;100873.78;;;6.21;100.00
19676;BME280;39539;52.202;9.876;2023-11-21T10:12:43;100887.56;;;6.40;100.00
19676;BME280;39539;52.202;9.876;2023-11-21T10:15:12;100889.78;;;6.51;100.00
19676;BME280;39539;52.202;9.876;2023-11-21T10:17:44;100877.19;;;6.61;100.00
19676;BME280;39539;52.202;9.876;2023-11-21T10:20:14;100861.03;;;6.56;100.00
19676;BME280;39539;52.202;9.876;2023-11-21T10:22:43;100883.94;;;6.64;100.00
19676;BME280;39539;52.202;9.876;2023-11-21T10:25:09;100901.97;;;6.60;100.00
19676;BME280;39539;52.202;9.876;2023-11-21T10:27:36;100900.88;;;6.46;100.00
19676;BME280;39539;52.202;9.876;2023-11-21T10:30:07;100899.72;;;6.72;100.00
19676;BME280;39539;52.202;9.876;2023-11-21T10:32:38;100898.84;;;6.80;100.00
19676;BME280;39539;52.202;9.876;2023-11-21T10:35:07;100893.06;;;6.99;100.00
19676;BME280;39539;52.202;9.876;2023-11-21T10:37:38;100900.88;;;7.15;100.00
19676;BME280;39539;52.202;9.876;2023-11-21T10:40:10;100905.78;;;6.81;100.00
19676;BME280;39539;52.202;9.876;2023-11-21T10:42:39;100902.41;;;6.87;100.00
19676;BME280;39539;52.202;9.876;2023-11-21T10:45:06;100915.63;;;6.87;100.00
19676;BME280;39539;52.202;9.876;2023-11-21T10:47:41;100914.97;;;6.85;100.00
19676;BME280;39539;52.202;9.876;2023-11-21T10:50:07;100916.81;;;6.84;100.00
19676;BME280;39539;52.202;9.876;2023-11-21T10:52:37;100913.50;;;6.59;100.00
19676;BME280;39539;52.202;9.876;2023-11-21T10:55:16;100915.94;;;6.69;100.00
19676;BME280;39539;52.202;9.876;2023-11-21T10:57:42;100923.16;;;6.75;100.00
19676;BME280;39539;52.202;9.876;2023-11-21T11:00:08;100926.50;;;6.92;100.00
19676;BME280;39539;52.202;9.876;2023-11-21T11:02:38;100922.13;;;6.99;100.00
19676;BME280;39539;52.202;9.876;2023-11-21T11:05:04;100928.06;;;7.01;100.00
19676;BME280;39539;52.202;9.876;2023-11-21T11:07:31;100942.72;;;6.89;100.00
19676;BME280;39539;52.202;9.876;2023-11-21T11:10:00;100927.56;;;6.83;100.00
19676;BME280;39539;52.202;9.876;2023-11-21T11:12:25;100934.47;;;6.84;100.00
19676;BME280;39539;52.202;9.876;2023-11-21T11:14:51;100946.16;;;7.12;100.00
19676;BME280;39539;52.202;9.876;2023-11-21T11:17:19;100941.94;;;7.03;100.00
19676;BME280;39539;52.202;9.876;2023-11-21T11:19:47;100932.03;;;7.05;100.00
19676;BME280;39539;52.202;9.876;2023-11-21T11:22:29;100941.34;;;6.93;100.00
19676;BME280;39539;52.202;9.876;2023-11-21T11:25:14;100944.19;;;6.91;100.00
19676;BME280;39539;52.202;9.876;2023-11-21T11:28:03;100955.00;;;6.73;100.00
19676;BME280;39539;52.202;9.876;2023-11-21T11:31:04;100938.41;;;6.88;100.00
19676;BME280;39539;52.202;9.876;2023-11-21T11:33:43;100947.88;;;6.82;100.00
19676;BME280;39539;52.202;9.876;2023-11-21T11:36:25;100953.38;;;6.72;100.00
19676;BME280;39539;52.202;9.876;2023-11-21T11:38:52;100935.28;;;6.61;100.00
19676;BME280;39539;52.202;9.876;2023-11-21T11:41:30;100939.47;;;6.79;100.00
19676;BME280;39539;52.202;9.876;2023-11-21T11:43:58;100938.03;;;6.68;100.00
19676;BME280;39539;52.202;9.876;2023-11-21T11:46:43;100950.59;;;6.97;100.00
19676;BME280;39539;52.202;9.876;2023-11-21T11:49:30;100946.41;;;7.03;100.00
19676;BME280;39539;52.202;9.876;2023-11-21T11:52:35;100948.69;;;7.06;100.00
19676;BME280;39539;52.202;9.876;2023-11-21T11:55:02;100954.97;;;7.28;100.00
19676;BME280;39539;52.202;9.876;2023-11-21T11:57:31;100956.97;;;7.26;100.00
19676;BME280;39539;52.202;9.876;2023-11-21T12:00:11;100959.25;;;7.29;100.00
19676;BME280;39539;52.202;9.876;2023-11-21T12:02:42;100966.13;;;7.38;100.00
19676;BME280;39539;52.202;9.876;2023-11-21T12:05:12;100959.63;;;7.26;100.00
19676;BME280;39539;52.202;9.876;2023-11-21T12:07:54;100961.53;;;7.32;100.00
19676;BME280;39539;52.202;9.876;2023-11-21T12:10:22;100950.56;;;7.20;100.00
19676;BME280;39539;52.202;9.876;2023-11-21T12:12:51;100957.31;;;7.23;100.00
19676;BME280;39539;52.202;9.876;2023-11-21T12:15:20;100960.13;;;7.21;100.00
19676;BME280;39539;52.202;9.876;2023-11-21T12:17:47;100966.84;;;7.32;100.00
19676;BME280;39539;52.202;9.876;2023-11-21T12:20:15;100967.78;;;7.16;100.00
19676;BME280;39539;52.202;9.876;2023-11-21T12:22:47;100973.59;;;7.34;100.00
19676;BME280;39539;52.202;9.876;2023-11-21T12:25:17;100974.06;;;6.92;100.00
19676;BME280;39539;52.202;9.876;2023-11-21T12:27:52;100976.97;;;7.05;100.00
19676;BME280;39539;52.202;9.876;2023-11-21T12:30:20;100975.69;;;7.16;100.00
19676;BME280;39539;52.202;9.876;2023-11-21T12:32:54;100981.06;;;7.31;100.00
19676;BME280;39539;52.202;9.876;2023-11-21T12:35:23;100982.94;;;7.45;100.00
19676;BME280;39539;52.202;9.876;2023-11-21T12:37:51;100965.75;;;7.41;100.00
19676;BME280;39539;52.202;9.876;2023-11-21T12:40:20;100974.50;;;7.41;100.00
19676;BME280;39539;52.202;9.876;2023-11-21T12:42:49;100978.34;;;7.39;100.00
19676;BME280;39539;52.202;9.876;2023-11-21T12:47:49;100981.28;;;7.21;100.00
19676;BME280;39539;52.202;9.876;2023-11-21T12:50:19;100986.44;;;7.37;100.00
19676;BME280;39539;52.202;9.876;2023-11-21T12:52:51;100994.47;;;7.44;100.00
19676;BME280;39539;52.202;9.876;2023-11-21T12:55:19;100993.75;;;7.12;100.00
19676;BME280;39539;52.202;9.876;2023-11-21T12:57:54;101000.97;;;7.18;100.00
19676;BME280;39539;52.202;9.876;2023-11-21T13:00:28;100994.44;;;7.06;100.00